sensor_id;sensor_type;location;lat;lon;timestamp;pressure;altitude;pressure_sealevel;temperature;humidity
29215;BME280;16252;49.816;7.964;2023-06-22T00:00:07;100142.88;;;27.15;49.55
29215;BME280;16252;49.816;7.964;2023-06-22T00:02:36;100133.78;;;27.14;49.71
29215;BME280;16252;49.816;7.964;2023-06-22T00:05:02;100114.66;;;27.01;49.61
29215;BME280;16252;49.816;7.964;2023-06-22T00:07:27;100127.50;;;27.07;49.86
29215;BME280;16252;49.816;7.964;2023-06-22T00:09:52;100122.19;;;27.12;49.92
29215;BME280;16252;49.816;7.964;2023-06-22T00:12:18;100099.19;;;27.07;49.84
29215;BME280;16252;49.816;7.964;2023-06-22T00:14:43;100104.00;;;27.11;50.20
29215;BME280;16252;49.816;7.964;2023-06-22T00:17:08;100085.56;;;26.93;50.35
29215;BME280;16252;49.816;7.964;2023-06-22T00:19:34;100095.88;;;26.98;50.68
29215;BME280;16252;49.816;7.964;2023-06-22T00:22:00;100099.69;;;26.97;51.06
29215;BME280;16252;49.816;7.964;2023-06-22T00:24:25;100114.94;;;26.93;51.47
29215;BME280;16252;49.816;7.964;2023-06-22T00:26:51;100139.25;;;26.89;51.20
29215;BME280;16252;49.816;7.964;2023-06-22T00:29:16;100102.94;;;26.49;51.80
29215;BME280;16252;49.816;7.964;2023-06-22T00:31:43;100197.69;;;26.96;51.66
29215;BME280;16252;49.816;7.964;2023-06-22T00:34:08;100214.66;;;26.87;51.97
29215;BME280;16252;49.816;7.964;2023-06-22T00:36:34;100273.03;;;27.07;52.21
29215;BME280;16252;49.816;7.964;2023-06-22T00:39:00;100275.00;;;26.93;52.40
29215;BME280;16252;49.816;7.964;2023-06-22T00:41:25;100263.25;;;26.79;52.61
29215;BME280;16252;49.816;7.964;2023-06-22T00:43:53;100233.06;;;26.66;52.92
29215;BME280;16252;49.816;7.964;2023-06-22T00:46:19;100149.97;;;26.46;53.15
29215;BME280;16252;49.816;7.964;2023-06-22T00:48:44;100102.88;;;26.62;53.45
29215;BME280;16252;49.816;7.964;2023-06-22T00:51:13;99993.97;;;26.24;53.74
29215;BME280;16252;49.816;7.964;2023-06-22T00:53:38;100005.50;;;26.33;53.93
29215;BME280;16252;49.816;7.964;2023-06-22T00:56:07;100047.41;;;26.53;53.98
29215;BME280;16252;49.816;7.964;2023-06-22T00:58:54;100034.41;;;26.35;54.12
29215;BME280;16252;49.816;7.964;2023-06-22T01:01:20;100031.47;;;26.30;54.09
29215;BME280;16252;49.816;7.964;2023-06-22T01:03:48;100030.47;;;26.18;54.93
29215;BME280;16252;49.816;7.964;2023-06-22T01:06:19;100022.56;;;26.03;55.03
29215;BME280;16252;49.816;7.964;2023-06-22T01:09:00;100107.56;;;26.55;55.08
29215;BME280;16252;49.816;7.964;2023-06-22T01:11:41;100069.00;;;26.36;54.57
29215;BME280;16252;49.816;7.964;2023-06-22T01:14:15;100069.69;;;26.25;55.43
29215;BME280;16252;49.816;7.964;2023-06-22T01:16:44;100059.03;;;25.97;55.52
29215;BME280;16252;49.816;7.964;2023-06-22T01:19:35;100141.94;;;26.51;54.82
29215;BME280;16252;49.816;7.964;2023-06-22T01:22:01;100101.78;;;26.18;55.89
29215;BME280;16252;49.816;7.964;2023-06-22T01:24:51;100135.59;;;26.50;55.46
29215;BME280;16252;49.816;7.964;2023-06-22T01:29:59;100093.53;;;26.25;56.02
29215;BME280;16252;49.816;7.964;2023-06-22T01:32:31;100051.00;;;26.09;56.20
29215;BME280;16252;49.816;7.964;2023-06-22T01:34:59;100082.34;;;26.26;56.37
29215;BME280;16252;49.816;7.964;2023-06-22T01:37:27;100061.97;;;26.02;56.50
29215;BME280;16252;49.816;7.964;2023-06-22T01:39:57;100066.19;;;26.05;56.50
29215;BME280;16252;49.816;7.964;2023-06-22T01:42:24;100113.97;;;26.29;56.54
29215;BME280;16252;49.816;7.964;2023-06-22T01:44:52;100078.38;;;26.15;56.87
29215;BME280;16252;49.816;7.964;2023-06-22T01:47:17;100081.78;;;26.11;56.95
29215;BME280;16252;49.816;7.964;2023-06-22T01:49:43;100035.69;;;25.88;56.93
29215;BME280;16252;49.816;7.964;2023-06-22T01:52:09;100068.47;;;26.08;56.97
29215;BME280;16252;49.816;7.964;2023-06-22T01:54:34;100071.41;;;26.13;57.47
29215;BME280;16252;49.816;7.964;2023-06-22T01:56:59;100032.31;;;25.86;57.38
29215;BME280;16252;49.816;7.964;2023-06-22T01:59:45;100034.78;;;26.01;56.65
29215;BME280;16252;49.816;7.964;2023-06-22T02:02:18;100052.31;;;25.93;57.43
29215;BME280;16252;49.816;7.964;2023-06-22T02:04:52;100085.56;;;26.10;56.88
29215;BME280;16252;49.816;7.964;2023-06-22T02:07:21;100060.34;;;25.81;57.16
29215;BME280;16252;49.816;7.964;2023-06-22T02:09:51;100105.84;;;26.02;57.33
29215;BME280;16252;49.816;7.964;2023-06-22T02:12:21;100101.81;;;26.05;57.25
29215;BME280;16252;49.816;7.964;2023-06-22T02:14:47;100102.47;;;26.00;57.02
29215;BME280;16252;49.816;7.964;2023-06-22T02:17:13;100119.94;;;26.12;57.09
29215;BME280;16252;49.816;7.964;2023-06-22T02:19:42;100087.72;;;25.94;57.13
29215;BME280;16252;49.816;7.964;2023-06-22T02:22:07;100086.91;;;25.87;57.26
29215;BME280;16252;49.816;7.964;2023-06-22T02:24:33;100091.31;;;25.95;56.96
29215;BME280;16252;49.816;7.964;2023-06-22T02:27:02;100078.03;;;25.92;57.44
29215;BME280;16252;49.816;7.964;2023-06-22T02:29:31;100045.81;;;25.74;57.02
29215;BME280;16252;49.816;7.964;2023-06-22T02:31:57;100046.44;;;25.83;56.71
29215;BME280;16252;49.816;7.964;2023-06-22T02:34:22;100065.34;;;26.04;57.37
29215;BME280;16252;49.816;7.964;2023-06-22T02:36:48;100040.94;;;25.89;57.09
29215;BME280;16252;49.816;7.964;2023-06-22T02:39:19;100043.91;;;25.88;57.07
29215;BME280;16252;49.816;7.964;2023-06-22T02:41:44;100036.97;;;25.85;57.48
29215;BME280;16252;49.816;7.964;2023-06-22T02:44:09;100021.34;;;25.79;57.60
29215;BME280;16252;49.816;7.964;2023-06-22T02:46:35;100028.28;;;25.82;57.29
29215;BME280;16252;49.816;7.964;2023-06-22T02:49:01;100032.94;;;25.81;57.26
29215;BME280;16252;49.816;7.964;2023-06-22T02:51:26;99994.25;;;25.58;57.52
29215;BME280;16252;49.816;7.964;2023-06-22T02:53:51;100034.00;;;25.80;57.44
29215;BME280;16252;49.816;7.964;2023-06-22T02:56:22;100041.19;;;25.88;57.94
29215;BME280;16252;49.816;7.964;2023-06-22T02:58:50;100005.59;;;25.61;57.68
29215;BME280;16252;49.816;7.964;2023-06-22T03:01:16;100007.28;;;25.56;57.96
29215;BME280;16252;49.816;7.964;2023-06-22T03:03:41;99999.94;;;25.49;57.42
29215;BME280;16252;49.816;7.964;2023-06-22T03:06:06;100030.44;;;25.73;57.97
29215;BME280;16252;49.816;7.964;2023-06-22T03:08:32;99992.56;;;25.50;57.77
29215;BME280;16252;49.816;7.964;2023-06-22T03:10:57;99986.03;;;25.44;57.56
29215;BME280;16252;49.816;7.964;2023-06-22T03:13:23;100003.28;;;25.51;57.57
29215;BME280;16252;49.816;7.964;2023-06-22T03:15:48;99993.84;;;25.47;58.01
29215;BME280;16252;49.816;7.964;2023-06-22T03:18:13;99985.00;;;25.45;58.01
29215;BME280;16252;49.816;7.964;2023-06-22T03:20:40;99998.88;;;25.50;58.11
29215;BME280;16252;49.816;7.964;2023-06-22T03:23:05;99995.50;;;25.48;58.43
29215;BME280;16252;49.816;7.964;2023-06-22T03:25:31;100029.38;;;25.67;58.30
29215;BME280;16252;49.816;7.964;2023-06-22T03:27:56;100010.00;;;25.62;58.47
29215;BME280;16252;49.816;7.964;2023-06-22T03:30:21;100016.53;;;25.68;57.85
29215;BME280;16252;49.816;7.964;2023-06-22T03:32:47;99968.75;;;25.44;58.01
29215;BME280;16252;49.816;7.964;2023-06-22T03:35:12;100004.97;;;25.59;58.59
29215;BME280;16252;49.816;7.964;2023-06-22T03:37:39;100001.81;;;25.56;58.51
29215;BME280;16252;49.816;7.964;2023-06-22T03:40:05;100005.19;;;25.58;58.61
29215;BME280;16252;49.816;7.964;2023-06-22T03:42:30;99982.06;;;25.40;58.15
29215;BME280;16252;49.816;7.964;2023-06-22T03:44:55;99999.31;;;25.47;58.40
29215;BME280;16252;49.816;7.964;2023-06-22T03:47:21;100013.41;;;25.51;58.79
29215;BME280;16252;49.816;7.964;2023-06-22T03:49:46;100008.38;;;25.48;58.89
29215;BME280;16252;49.816;7.964;2023-06-22T03:52:12;99979.97;;;25.29;58.90
29215;BME280;16252;49.816;7.964;2023-06-22T03:54:37;100012.38;;;25.45;58.81
29215;BME280;16252;49.816;7.964;2023-06-22T03:57:03;100005.88;;;25.40;58.75
29215;BME280;16252;49.816;7.964;2023-06-22T03:59:28;100034.50;;;25.50;59.04
29215;BME280;16252;49.816;7.964;2023-06-22T04:01:53;100028.19;;;25.50;59.01
29215;BME280;16252;49.816;7.964;2023-06-22T04:04:20;100021.63;;;25.44;58.92
29215;BME280;16252;49.816;7.964;2023-06-22T04:06:45;100027.34;;;25.43;59.27
29215;BME280;16252;49.816;7.964;2023-06-22T04:09:10;100028.81;;;25.45;59.22
29215;BME280;16252;49.816;7.964;2023-06-22T04:11:36;100035.34;;;25.44;59.03
29215;BME280;16252;49.816;7.964;2023-06-22T04:14:01;100007.13;;;25.24;59.05
29215;BME280;16252;49.816;7.964;2023-06-22T04:16:26;99992.63;;;25.17;58.88
29215;BME280;16252;49.816;7.964;2023-06-22T04:18:52;100031.16;;;25.35;58.89
29215;BME280;16252;49.816;7.964;2023-06-22T04:21:17;99986.69;;;25.06;59.14
29215;BME280;16252;49.816;7.964;2023-06-22T04:23:44;99998.09;;;25.17;59.46
29215;BME280;16252;49.816;7.964;2023-06-22T04:26:11;100015.34;;;25.24;59.15
29215;BME280;16252;49.816;7.964;2023-06-22T04:28:36;99974.94;;;24.99;58.91
29215;BME280;16252;49.816;7.964;2023-06-22T04:31:02;100020.00;;;25.30;58.99
29215;BME280;16252;49.816;7.964;2023-06-22T04:33:28;99986.50;;;25.08;59.18
29215;BME280;16252;49.816;7.964;2023-06-22T04:35:55;99999.31;;;25.14;59.33
29215;BME280;16252;49.816;7.964;2023-06-22T04:38:22;99994.50;;;25.09;59.79
29215;BME280;16252;49.816;7.964;2023-06-22T04:40:48;100009.69;;;25.19;59.51
29215;BME280;16252;49.816;7.964;2023-06-22T04:43:13;99995.13;;;25.12;59.70
29215;BME280;16252;49.816;7.964;2023-06-22T04:45:38;100007.34;;;25.16;59.69
29215;BME280;16252;49.816;7.964;2023-06-22T04:48:05;100019.16;;;25.23;59.59
29215;BME280;16252;49.816;7.964;2023-06-22T04:50:30;99983.16;;;24.99;59.93
29215;BME280;16252;49.816;7.964;2023-06-22T04:52:55;100017.91;;;25.25;60.03
29215;BME280;16252;49.816;7.964;2023-06-22T04:55:21;99958.09;;;24.82;60.10
29215;BME280;16252;49.816;7.964;2023-06-22T04:57:47;100029.88;;;25.24;60.08
29215;BME280;16252;49.816;7.964;2023-06-22T05:00:17;100034.53;;;25.30;60.04
29215;BME280;16252;49.816;7.964;2023-06-22T05:02:44;99984.63;;;24.95;60.18
29215;BME280;16252;49.816;7.964;2023-06-22T05:05:10;99993.25;;;25.05;60.74
29215;BME280;16252;49.816;7.964;2023-06-22T05:07:42;99972.59;;;24.96;60.45
29215;BME280;16252;49.816;7.964;2023-06-22T05:10:09;100019.16;;;25.23;60.56
29215;BME280;16252;49.816;7.964;2023-06-22T05:12:35;99996.81;;;25.06;60.79
29215;BME280;16252;49.816;7.964;2023-06-22T05:15:00;100025.44;;;25.37;60.96
29215;BME280;16252;49.816;7.964;2023-06-22T05:17:26;99971.34;;;25.19;60.69
29215;BME280;16252;49.816;7.964;2023-06-22T05:19:52;99985.44;;;25.36;60.62
29215;BME280;16252;49.816;7.964;2023-06-22T05:22:17;100005.00;;;25.52;60.30
29215;BME280;16252;49.816;7.964;2023-06-22T05:24:43;100006.47;;;25.55;60.15
29215;BME280;16252;49.816;7.964;2023-06-22T05:27:09;99998.88;;;25.50;60.24
29215;BME280;16252;49.816;7.964;2023-06-22T05:29:36;99954.72;;;25.27;60.21
29215;BME280;16252;49.816;7.964;2023-06-22T05:32:01;100005.59;;;25.61;60.16
29215;BME280;16252;49.816;7.964;2023-06-22T05:34:26;99983.09;;;25.52;60.30
29215;BME280;16252;49.816;7.964;2023-06-22T05:36:52;99981.56;;;25.57;60.55
29215;BME280;16252;49.816;7.964;2023-06-22T05:39:17;99999.66;;;25.71;60.44
29215;BME280;16252;49.816;7.964;2023-06-22T05:41:44;99969.38;;;25.52;60.17
29215;BME280;16252;49.816;7.964;2023-06-22T05:44:09;99976.53;;;25.60;60.27
29215;BME280;16252;49.816;7.964;2023-06-22T05:46:34;99972.28;;;25.64;60.13
29215;BME280;16252;49.816;7.964;2023-06-22T05:49:00;99980.03;;;25.74;59.77
29215;BME280;16252;49.816;7.964;2023-06-22T05:51:25;99937.78;;;25.50;59.76
29215;BME280;16252;49.816;7.964;2023-06-22T05:53:53;99933.59;;;25.47;59.70
29215;BME280;16252;49.816;7.964;2023-06-22T05:56:26;99928.91;;;25.55;59.51
29215;BME280;16252;49.816;7.964;2023-06-22T05:58:54;99962.56;;;25.75;59.46
29215;BME280;16252;49.816;7.964;2023-06-22T06:01:19;99967.59;;;25.85;59.56
29215;BME280;16252;49.816;7.964;2023-06-22T06:03:45;99967.34;;;25.93;58.87
29215;BME280;16252;49.816;7.964;2023-06-22T06:06:10;99943.13;;;25.83;58.96
29215;BME280;16252;49.816;7.964;2023-06-22T06:08:37;99964.34;;;26.01;58.83
29215;BME280;16252;49.816;7.964;2023-06-22T06:11:02;99979.72;;;26.09;58.97
29215;BME280;16252;49.816;7.964;2023-06-22T06:13:27;99977.97;;;26.14;59.10
29215;BME280;16252;49.816;7.964;2023-06-22T06:15:53;99967.41;;;26.18;59.33
29215;BME280;16252;49.816;7.964;2023-06-22T06:18:20;99996.44;;;26.32;58.96
29215;BME280;16252;49.816;7.964;2023-06-22T06:20:45;99996.63;;;26.37;59.27
29215;BME280;16252;49.816;7.964;2023-06-22T06:23:10;99992.16;;;26.43;58.58
29215;BME280;16252;49.816;7.964;2023-06-22T06:25:36;99932.22;;;26.15;59.04
29215;BME280;16252;49.816;7.964;2023-06-22T06:28:01;99942.25;;;26.28;58.92
29215;BME280;16252;49.816;7.964;2023-06-22T06:30:26;99979.03;;;26.52;58.97
29215;BME280;16252;49.816;7.964;2023-06-22T06:32:52;99950.41;;;26.41;58.34
29215;BME280;16252;49.816;7.964;2023-06-22T06:35:17;99974.56;;;26.57;58.41
29215;BME280;16252;49.816;7.964;2023-06-22T06:37:48;99986.09;;;26.66;58.52
29215;BME280;16252;49.816;7.964;2023-06-22T06:40:14;99980.69;;;26.59;59.01
29215;BME280;16252;49.816;7.964;2023-06-22T06:42:42;99987.75;;;26.74;58.94
29215;BME280;16252;49.816;7.964;2023-06-22T06:45:17;99998.63;;;26.87;58.77
29215;BME280;16252;49.816;7.964;2023-06-22T06:47:43;99938.28;;;26.55;58.83
29215;BME280;16252;49.816;7.964;2023-06-22T06:50:09;99995.97;;;26.99;58.68
29215;BME280;16252;49.816;7.964;2023-06-22T06:52:35;99956.81;;;26.85;58.94
29215;BME280;16252;49.816;7.964;2023-06-22T06:55:00;99961.34;;;26.98;58.91
29215;BME280;16252;49.816;7.964;2023-06-22T06:57:25;99960.91;;;27.01;58.58
29215;BME280;16252;49.816;7.964;2023-06-22T06:59:55;99972.66;;;27.08;58.54
29215;BME280;16252;49.816;7.964;2023-06-22T07:02:21;99964.59;;;27.13;58.72
29215;BME280;16252;49.816;7.964;2023-06-22T07:04:46;99988.53;;;27.50;58.68
29215;BME280;16252;49.816;7.964;2023-06-22T07:07:12;99975.09;;;27.60;58.65
29215;BME280;16252;49.816;7.964;2023-06-22T07:09:37;99930.34;;;27.71;59.70
29215;BME280;16252;49.816;7.964;2023-06-22T07:12:03;99955.84;;;28.27;59.18
29215;BME280;16252;49.816;7.964;2023-06-22T07:14:28;99938.59;;;28.73;57.86
29215;BME280;16252;49.816;7.964;2023-06-22T07:16:53;99939.47;;;29.33;57.53
29215;BME280;16252;49.816;7.964;2023-06-22T07:19:25;99927.19;;;29.76;56.84
29215;BME280;16252;49.816;7.964;2023-06-22T07:21:51;99919.25;;;30.08;55.36
29215;BME280;16252;49.816;7.964;2023-06-22T07:24:16;99912.63;;;30.55;54.89
29215;BME280;16252;49.816;7.964;2023-06-22T07:26:41;99938.06;;;31.07;54.27
29215;BME280;16252;49.816;7.964;2023-06-22T07:29:10;99960.91;;;31.81;53.14
29215;BME280;16252;49.816;7.964;2023-06-22T07:31:36;99947.75;;;32.42;52.47
29215;BME280;16252;49.816;7.964;2023-06-22T07:34:01;99946.03;;;33.00;51.11
29215;BME280;16252;49.816;7.964;2023-06-22T07:36:26;99947.53;;;33.61;50.87
29215;BME280;16252;49.816;7.964;2023-06-22T07:38:52;99946.63;;;34.23;48.51
29215;BME280;16252;49.816;7.964;2023-06-22T07:41:17;99943.38;;;34.78;48.24
29215;BME280;16252;49.816;7.964;2023-06-22T07:43:44;99931.66;;;35.16;46.92
29215;BME280;16252;49.816;7.964;2023-06-22T07:46:09;99954.28;;;35.70;45.13
29215;BME280;16252;49.816;7.964;2023-06-22T07:48:37;99941.97;;;35.91;43.91
29215;BME280;16252;49.816;7.964;2023-06-22T07:51:02;99937.38;;;36.16;42.67
29215;BME280;16252;49.816;7.964;2023-06-22T07:53:27;99925.84;;;36.33;42.77
29215;BME280;16252;49.816;7.964;2023-06-22T07:55:53;99926.22;;;36.55;41.01
29215;BME280;16252;49.816;7.964;2023-06-22T07:58:18;99939.19;;;36.75;40.84
29215;BME280;16252;49.816;7.964;2023-06-22T08:00:45;99915.56;;;36.67;40.87
29215;BME280;16252;49.816;7.964;2023-06-22T08:03:11;99952.38;;;36.94;40.32
29215;BME280;16252;49.816;7.964;2023-06-22T08:05:36;99919.38;;;36.77;40.51
29215;BME280;16252;49.816;7.964;2023-06-22T08:08:01;99904.47;;;36.62;40.20
29215;BME280;16252;49.816;7.964;2023-06-22T08:10:27;99909.44;;;36.65;39.63
29215;BME280;16252;49.816;7.964;2023-06-22T08:12:52;99903.09;;;36.55;39.88
29215;BME280;16252;49.816;7.964;2023-06-22T08:15:18;99922.28;;;36.61;39.82
29215;BME280;16252;49.816;7.964;2023-06-22T08:17:44;99932.81;;;36.70;39.68
29215;BME280;16252;49.816;7.964;2023-06-22T08:20:10;99919.81;;;36.60;39.64
29215;BME280;16252;49.816;7.964;2023-06-22T08:22:37;99904.41;;;36.67;40.45
29215;BME280;16252;49.816;7.964;2023-06-22T08:25:03;99867.91;;;36.69;40.11
29215;BME280;16252;49.816;7.964;2023-06-22T08:27:30;99901.72;;;37.16;39.91
29215;BME280;16252;49.816;7.964;2023-06-22T08:29:57;99904.25;;;37.36;40.03
29215;BME280;16252;49.816;7.964;2023-06-22T08:32:30;99866.78;;;37.42;38.87
29215;BME280;16252;49.816;7.964;2023-06-22T08:34:56;99885.88;;;37.78;39.01
29215;BME280;16252;49.816;7.964;2023-06-22T08:37:22;99882.31;;;37.91;37.47
29215;BME280;16252;49.816;7.964;2023-06-22T08:40:04;99870.94;;;38.07;37.38
29215;BME280;16252;49.816;7.964;2023-06-22T08:42:31;99896.66;;;38.42;37.51
29215;BME280;16252;49.816;7.964;2023-06-22T08:44:56;99860.47;;;38.50;37.84
29215;BME280;16252;49.816;7.964;2023-06-22T08:47:22;99901.38;;;39.07;37.33
29215;BME280;16252;49.816;7.964;2023-06-22T08:49:48;99878.81;;;39.31;35.96
29215;BME280;16252;49.816;7.964;2023-06-22T08:52:13;99885.31;;;39.67;35.60
29215;BME280;16252;49.816;7.964;2023-06-22T08:54:39;99868.09;;;39.74;34.76
29215;BME280;16252;49.816;7.964;2023-06-22T08:57:04;99864.38;;;39.79;34.20
29215;BME280;16252;49.816;7.964;2023-06-22T08:59:29;99849.78;;;39.54;34.30
29215;BME280;16252;49.816;7.964;2023-06-22T09:01:55;99885.47;;;39.49;33.96
29215;BME280;16252;49.816;7.964;2023-06-22T09:04:20;99865.66;;;39.04;34.14
29215;BME280;16252;49.816;7.964;2023-06-22T09:06:48;99859.47;;;38.60;34.24
29215;BME280;16252;49.816;7.964;2023-06-22T09:09:16;99857.56;;;38.23;34.95
29215;BME280;16252;49.816;7.964;2023-06-22T09:11:41;99840.81;;;37.85;34.45
29215;BME280;16252;49.816;7.964;2023-06-22T09:14:07;99880.66;;;37.90;34.88
29215;BME280;16252;49.816;7.964;2023-06-22T09:16:32;99862.47;;;37.74;35.08
29215;BME280;16252;49.816;7.964;2023-06-22T09:18:58;99874.41;;;37.61;35.19
29215;BME280;16252;49.816;7.964;2023-06-22T09:21:23;99853.03;;;37.27;34.94
29215;BME280;16252;49.816;7.964;2023-06-22T09:23:48;99855.53;;;37.04;34.77
29215;BME280;16252;49.816;7.964;2023-06-22T09:26:17;99836.53;;;36.82;35.50
29215;BME280;16252;49.816;7.964;2023-06-22T09:28:42;99825.66;;;36.81;36.03
29215;BME280;16252;49.816;7.964;2023-06-22T09:31:07;99836.75;;;36.86;35.41
29215;BME280;16252;49.816;7.964;2023-06-22T09:33:33;99816.88;;;36.69;35.98
29215;BME280;16252;49.816;7.964;2023-06-22T09:35:58;99812.03;;;36.50;35.38
29215;BME280;16252;49.816;7.964;2023-06-22T09:38:23;99796.88;;;36.32;35.97
29215;BME280;16252;49.816;7.964;2023-06-22T09:40:48;99806.16;;;36.22;36.21
29215;BME280;16252;49.816;7.964;2023-06-22T09:43:14;99794.56;;;36.05;36.69
29215;BME280;16252;49.816;7.964;2023-06-22T09:45:39;99799.59;;;36.03;36.24
29215;BME280;16252;49.816;7.964;2023-06-22T09:48:05;99798.44;;;36.14;36.76
29215;BME280;16252;49.816;7.964;2023-06-22T09:50:30;99773.53;;;35.94;37.21
29215;BME280;16252;49.816;7.964;2023-06-22T09:52:55;99802.25;;;36.23;36.74
29215;BME280;16252;49.816;7.964;2023-06-22T09:55:21;99763.66;;;36.12;36.51
29215;BME280;16252;49.816;7.964;2023-06-22T09:57:46;99769.06;;;36.27;36.79
29215;BME280;16252;49.816;7.964;2023-06-22T10:00:12;99787.59;;;36.42;36.53
29215;BME280;16252;49.816;7.964;2023-06-22T10:02:39;99800.81;;;36.60;36.22
29215;BME280;16252;49.816;7.964;2023-06-22T10:05:05;99785.25;;;36.54;36.32
29215;BME280;16252;49.816;7.964;2023-06-22T10:07:30;99757.25;;;36.40;35.98
29215;BME280;16252;49.816;7.964;2023-06-22T10:09:55;99788.28;;;36.58;36.06
29215;BME280;16252;49.816;7.964;2023-06-22T10:12:21;99779.41;;;36.51;35.78
29215;BME280;16252;49.816;7.964;2023-06-22T10:14:46;99777.44;;;36.51;36.24
29215;BME280;16252;49.816;7.964;2023-06-22T10:17:11;99738.66;;;36.31;36.33
29215;BME280;16252;49.816;7.964;2023-06-22T10:19:37;99763.91;;;36.44;35.72
29215;BME280;16252;49.816;7.964;2023-06-22T10:22:04;99738.44;;;36.27;35.28
29215;BME280;16252;49.816;7.964;2023-06-22T10:24:30;99726.09;;;36.04;35.85
29215;BME280;16252;49.816;7.964;2023-06-22T10:26:55;99740.25;;;36.13;35.68
29215;BME280;16252;49.816;7.964;2023-06-22T10:29:20;99722.34;;;35.90;35.77
29215;BME280;16252;49.816;7.964;2023-06-22T10:31:46;99710.78;;;35.72;36.18
29215;BME280;16252;49.816;7.964;2023-06-22T10:34:11;99740.81;;;35.80;36.22
29215;BME280;16252;49.816;7.964;2023-06-22T10:36:38;99758.59;;;35.79;35.98
29215;BME280;16252;49.816;7.964;2023-06-22T10:39:03;99735.38;;;35.55;36.28
29215;BME280;16252;49.816;7.964;2023-06-22T10:41:29;99701.06;;;35.30;36.06
29215;BME280;16252;49.816;7.964;2023-06-22T10:43:55;99719.41;;;35.31;35.94
29215;BME280;16252;49.816;7.964;2023-06-22T10:46:20;99696.16;;;35.12;36.02
29215;BME280;16252;49.816;7.964;2023-06-22T10:48:46;99678.13;;;34.99;36.57
29215;BME280;16252;49.816;7.964;2023-06-22T10:51:11;99675.88;;;35.06;36.40
29215;BME280;16252;49.816;7.964;2023-06-22T10:53:36;99715.56;;;35.22;36.22
29215;BME280;16252;49.816;7.964;2023-06-22T10:56:02;99664.00;;;34.95;36.45
29215;BME280;16252;49.816;7.964;2023-06-22T10:58:36;99694.25;;;35.12;36.44
29215;BME280;16252;49.816;7.964;2023-06-22T11:01:01;99710.00;;;35.22;36.68
29215;BME280;16252;49.816;7.964;2023-06-22T11:03:28;99667.34;;;34.92;36.56
29215;BME280;16252;49.816;7.964;2023-06-22T11:05:53;99645.19;;;34.82;35.96
29215;BME280;16252;49.816;7.964;2023-06-22T11:08:18;99683.97;;;35.03;36.17
29215;BME280;16252;49.816;7.964;2023-06-22T11:10:44;99667.03;;;34.99;36.54
29215;BME280;16252;49.816;7.964;2023-06-22T11:13:09;99660.97;;;34.92;36.43
29215;BME280;16252;49.816;7.964;2023-06-22T11:15:36;99687.78;;;35.17;36.05
29215;BME280;16252;49.816;7.964;2023-06-22T11:18:01;99672.03;;;35.02;35.54
29215;BME280;16252;49.816;7.964;2023-06-22T11:20:26;99665.38;;;34.98;35.87
29215;BME280;16252;49.816;7.964;2023-06-22T11:22:52;99690.59;;;35.12;36.23
29215;BME280;16252;49.816;7.964;2023-06-22T11:25:17;99691.44;;;35.17;36.39
29215;BME280;16252;49.816;7.964;2023-06-22T11:27:42;99716.34;;;35.33;36.19
29215;BME280;16252;49.816;7.964;2023-06-22T11:30:08;99669.53;;;35.01;36.19
29215;BME280;16252;49.816;7.964;2023-06-22T11:32:34;99640.59;;;35.02;36.07
29215;BME280;16252;49.816;7.964;2023-06-22T11:34:59;99660.84;;;35.17;36.48
29215;BME280;16252;49.816;7.964;2023-06-22T11:37:25;99640.03;;;35.10;36.46
29215;BME280;16252;49.816;7.964;2023-06-22T11:39:51;99685.69;;;35.43;36.07
29215;BME280;16252;49.816;7.964;2023-06-22T11:42:16;99655.75;;;35.25;35.77
29215;BME280;16252;49.816;7.964;2023-06-22T11:44:42;99667.63;;;35.41;35.98
29215;BME280;16252;49.816;7.964;2023-06-22T11:47:09;99639.13;;;35.20;36.07
29215;BME280;16252;49.816;7.964;2023-06-22T11:49:34;99671.50;;;35.39;36.16
29215;BME280;16252;49.816;7.964;2023-06-22T11:51:59;99634.97;;;35.17;36.34
29215;BME280;16252;49.816;7.964;2023-06-22T11:54:25;99617.50;;;35.06;35.82
29215;BME280;16252;49.816;7.964;2023-06-22T11:56:50;99659.91;;;35.32;35.90
29215;BME280;16252;49.816;7.964;2023-06-22T11:59:15;99614.44;;;35.08;35.99
29215;BME280;16252;49.816;7.964;2023-06-22T12:01:40;99620.50;;;35.20;36.23
29215;BME280;16252;49.816;7.964;2023-06-22T12:04:06;99637.44;;;35.24;35.77
29215;BME280;16252;49.816;7.964;2023-06-22T12:06:32;99620.25;;;35.16;36.06
29215;BME280;16252;49.816;7.964;2023-06-22T12:08:58;99650.66;;;35.37;35.51
29215;BME280;16252;49.816;7.964;2023-06-22T12:11:23;99608.03;;;35.17;36.24
29215;BME280;16252;49.816;7.964;2023-06-22T12:13:48;99585.81;;;35.12;35.71
29215;BME280;16252;49.816;7.964;2023-06-22T12:16:14;99607.38;;;35.26;35.98
29215;BME280;16252;49.816;7.964;2023-06-22T12:18:39;99579.66;;;35.15;35.45
29215;BME280;16252;49.816;7.964;2023-06-22T12:21:04;99573.81;;;35.17;35.56
29215;BME280;16252;49.816;7.964;2023-06-22T12:23:30;99604.25;;;35.37;35.07
29215;BME280;16252;49.816;7.964;2023-06-22T12:25:55;99584.88;;;35.27;34.74
29215;BME280;16252;49.816;7.964;2023-06-22T12:28:20;99607.84;;;35.38;34.63
29215;BME280;16252;49.816;7.964;2023-06-22T12:30:46;99589.84;;;35.30;34.69
29215;BME280;16252;49.816;7.964;2023-06-22T12:33:11;99618.00;;;35.53;34.66
29215;BME280;16252;49.816;7.964;2023-06-22T12:35:37;99582.88;;;35.33;34.95
29215;BME280;16252;49.816;7.964;2023-06-22T12:38:02;99569.81;;;35.28;34.71
29215;BME280;16252;49.816;7.964;2023-06-22T12:40:28;99570.03;;;35.37;34.67
29215;BME280;16252;49.816;7.964;2023-06-22T12:42:53;99602.97;;;35.59;34.07
29215;BME280;16252;49.816;7.964;2023-06-22T12:45:19;99590.44;;;35.56;33.94
29215;BME280;16252;49.816;7.964;2023-06-22T12:47:46;99585.50;;;35.48;34.49
29215;BME280;16252;49.816;7.964;2023-06-22T12:50:11;99588.47;;;35.57;33.83
29215;BME280;16252;49.816;7.964;2023-06-22T12:52:37;99588.78;;;35.55;34.19
29215;BME280;16252;49.816;7.964;2023-06-22T12:55:05;99579.91;;;35.53;34.14